• Join FlightAware (Why Join?)
  • Login
  • US Flag 
07:29PM EDT


 

Airport Tracker/Info


-or-


 

Live Flight TrackerFlight Track Log ✈ DAL268 ✈ 30-Jul-2013 ✈ KJFK - LLBG / TLV

Flight Track Log - Related Links

Times and Time Zones

All times are in EDT time to prevent confusion due to time zone crossing. See the DAL268 flight status page for this flight to view local times or setup timezone preferences in your user account.

Time Position Orientation Groundspeed Altitude Reporting Facility
EDT Latitude Longitude Course Direction KTS MPH feet Rate Location/Type
12:20AM 40.6240 -73.7830 90° East 84 97  Level FlightAware
12:20AM 40.6290 -73.7790 31° Northeast 130 150 720 Level FlightAware
12:20AM 40.6440 -73.7670 31° Northeast 180 207 960 Level FlightAware
12:21AM 40.6540 -73.7580 34° Northeast 174 200 600 1,920 Climbing FlightAware
12:21AM 40.6592 -73.7471 58° Northeast 181 208 900 1,440 Climbing FlightAware ADS-B
12:22AM 40.6620 -73.6980 86° East 195 224 1,900 1,380 Climbing FlightAware
12:22AM 40.6620 -73.6820 90° East 195 224 2,200 1,200 Climbing FlightAware
12:22AM 40.6630 -73.6620 86° East 197 227 2,500 1,080 Climbing FlightAware
12:23AM 40.6640 -73.6300 88° East 200 230 3,000 840 Climbing FlightAware
12:23AM 40.6650 -73.6040 87° East 213 245 3,200 600 Climbing FlightAware
12:23AM 40.6670 -73.5930 77° East 218 251 3,300 360 Climbing FlightAware
12:23AM 40.6700 -73.5830 68° East 225 259 3,300 480 Level FlightAware
12:23AM 40.6720 -73.5790 57° Northeast 227 261 3,400 480 Climbing FlightAware
12:23AM 40.6800 -73.5720 34° Northeast 231 266 3,400 660 Level FlightAware
12:24AM 40.6980 -73.5610 25° Northeast 243 280 3,700 900 Climbing FlightAware
12:24AM 40.7210 -73.5490 22° Northeast 257 296 4,000 960 Climbing FlightAware
12:24AM 40.7450 -73.5360 22° Northeast 274 315 4,400 1,320 Climbing FlightAware
12:25AM 40.7730 -73.5190 25° Northeast 288 331 5,000 1,800 Climbing FlightAware
12:25AM 40.7970 -73.5040 25° Northeast 293 337 5,700 2,220 Climbing FlightAware
12:25AM 40.8220 -73.4880 26° Northeast 296 341 6,500 2,160 Climbing FlightAware
12:26AM 40.8480 -73.4720 25° Northeast 300 345 7,200 2,160 Climbing FlightAware
12:26AM 40.8750 -73.4540 27° Northeast 305 351 8,000 2,040 Climbing FlightAware
12:26AM 40.9030 -73.4370 25° Northeast 311 358 8,700 1,920 Climbing FlightAware
12:27AM 40.9350 -73.4180 24° Northeast 315 362 9,500 1,680 Climbing FlightAware
12:27AM 40.9780 -73.3910 25° Northeast 330 380 10,300 1,080 Climbing FlightAware
12:28AM 41.0240 -73.3630 25° Northeast 355 409 10,700 840 Climbing FlightAware
12:29AM 41.0800 -73.3140 33° Northeast 394 453 11,300 1,200 Climbing FlightAware
12:29AM 41.1200 -73.2480 51° Northeast 412 474 12,200 1,740 Climbing FlightAware
12:30AM 41.1620 -73.1760 52° Northeast 422 486 13,400 1,980 Climbing FlightAware
12:30AM 41.2050 -73.1010 53° Northeast 430 495 14,600 1,980 Climbing FlightAware
12:31AM 41.2370 -73.0470 52° Northeast 434 499 15,500 1,440 Climbing FlightAware
12:32AM 41.2960 -72.9540 50° Northeast 436 502 16,400 1,320 Climbing FlightAware
12:32AM 41.3720 -72.8500 46° Northeast 448 516 17,800 900 Climbing FlightAware
12:33AM 41.4160 -72.7890 46° Northeast 448 516 17,800  Level FlightAware
12:34AM 41.4600 -72.7280 46° Northeast 448 516 17,800  Level FlightAware
12:34AM 41.5050 -72.6670 45° Northeast 448 516 17,800  Level FlightAware
12:35AM 41.5630 -72.5860 46° Northeast 448 516 17,800  Level FlightAware
12:36AM 41.6070 -72.5250 46° Northeast 448 516 17,800 4,620 Level FlightAware
12:36AM 41.7300 -72.3490 47° Northeast 504 580 24,300 5,220 Climbing FlightAware
12:37AM 41.7920 -72.2610 47° Northeast 510 587 25,100 1,440 Climbing FlightAware
12:38AM 41.8930 -72.1170 47° Northeast 516 594 26,400 1,320 Climbing FlightAware
12:38AM 41.9430 -72.0460 47° Northeast 520 598 27,000 1,200 Climbing FlightAware
12:39AM 42.0090 -71.9510 47° Northeast 523 602 27,800 1,080 Climbing FlightAware
12:40AM 42.0660 -71.8680 47° Northeast 526 605 28,400 1,200 Climbing FlightAware
12:40AM 42.1210 -71.7890 47° Northeast 523 602 29,200 1,440 Climbing FlightAware
12:41AM 42.1820 -71.6990 48° Northeast 518 596 30,100 1,440 Climbing FlightAware
12:41AM 42.2340 -71.6240 47° Northeast 515 593 30,900 780 Climbing FlightAware
12:42AM 42.2930 -71.5390 47° Northeast 516 594 31,000 60 Climbing FlightAware
12:43AM 42.3520 -71.4520 47° Northeast 516 594 31,000  Level FlightAware
12:43AM 42.4090 -71.3680 47° Northeast 518 596 31,000  Level FlightAware
12:44AM 42.4590 -71.2950 47° Northeast 520 598 31,000  Level FlightAware
12:44AM 42.5210 -71.2030 48° Northeast 522 601 31,000 -120 Level FlightAware
12:45AM 42.5730 -71.1270 47° Northeast 522 601 30,900  Descending FlightAware
12:46AM 42.6380 -71.0300 48° Northeast 521 600 31,000 60 Climbing FlightAware
12:46AM 42.6870 -70.9560 48° Northeast 521 600 31,000  Level FlightAware
12:47AM 42.7490 -70.8640 47° Northeast 520 598 31,000  Level FlightAware
12:47AM 42.8000 -70.7870 48° Northeast 520 598 31,000  Level FlightAware
12:48AM 42.8580 -70.7000 48° Northeast 518 596 31,000  Level FlightAware
12:48AM 42.9160 -70.6130 48° Northeast 515 593 31,000  Level FlightAware
12:49AM 42.9740 -70.5250 48° Northeast 512 589 31,000  Level FlightAware
12:50AM 43.0280 -70.4430 48° Northeast 510 587 31,000  Level FlightAware
12:50AM 43.0890 -70.3500 48° Northeast 510 587 31,000  Level FlightAware
12:51AM 43.1520 -70.2550 48° Northeast 510 587 31,000  Level FlightAware
12:52AM 43.2170 -70.1550 48° Northeast 507 583 31,000  Level FlightAware
12:52AM 43.2600 -70.0880 49° Northeast 507 583 31,000  Level FlightAware
12:53AM 43.3210 -69.9950 48° Northeast 507 583 31,000  Level FlightAware
12:53AM 43.3880 -69.8910 48° Northeast 507 583 31,000  Level FlightAware
12:54AM 43.4400 -69.8100 49° Northeast 507 583 31,000  Level FlightAware
12:55AM 43.5030 -69.7120 48° Northeast 506 582 31,000  Level FlightAware
12:55AM 43.5610 -69.6220 48° Northeast 500 575 31,000  Level FlightAware
12:56AM 43.6100 -69.5440 49° Northeast 501 577 31,000  Level FlightAware
12:57AM 43.6710 -69.4480 49° Northeast 501 577 31,000  Level FlightAware
12:57AM 43.7330 -69.3520 48° Northeast 511 588 31,000  Level FlightAware
12:58AM 43.7930 -69.2590 48° Northeast 511 588 31,000  Level FlightAware
12:58AM 43.8430 -69.1830 48° Northeast 511 588 31,000  Level FlightAware
12:59AM 43.8890 -69.1120 48° Northeast 511 588 31,000  Level FlightAware
12:59AM 43.9210 -69.0630 48° Northeast 511 588 31,000  Level FlightAware
01:00AM 43.9690 -68.9880 48° Northeast 511 588 31,000  Level FlightAware
01:01AM 44.0180 -68.9130 48° Northeast 511 588 31,000  Level FlightAware
01:01AM 44.0660 -68.8380 48° Northeast 511 588 31,000  Level FlightAware
01:02AM 44.1680 -68.6580 52° Northeast 513 590 31,000  Level FlightAware
01:03AM 44.2470 -68.5310 49° Northeast 516 594 31,000  Level FlightAware
01:03AM 44.2940 -68.4530 50° Northeast 518 596 31,000  Level FlightAware
01:04AM 44.3510 -68.3610 49° Northeast 520 598 31,000  Level FlightAware
01:04AM 44.4100 -68.2650 49° Northeast 521 600 31,000  Level FlightAware
01:05AM 44.4660 -68.1730 50° Northeast 521 600 31,000  Level FlightAware
01:06AM 44.5200 -68.0840 50° Northeast 521 600 31,000  Level FlightAware
01:06AM 44.5750 -67.9920 50° Northeast 521 600 31,000  Level FlightAware
01:07AM 44.6260 -67.9090 49° Northeast 520 598 31,000  Level FlightAware
01:07AM 44.6810 -67.8180 50° Northeast 518 596 31,000  Level FlightAware
01:08AM 44.7360 -67.7250 50° Northeast 518 596 31,000  Level FlightAware
01:08AM 44.7920 -67.6320 50° Northeast 517 595 31,000  Level FlightAware
01:09AM 44.8430 -67.5460 50° Northeast 513 590 31,000  Level FlightAware
01:10AM 44.8900 -67.4670 50° Northeast 515 593 31,000  Level FlightAware
01:10AM 44.9510 -67.3640 50° Northeast 522 601 31,000  Level FlightAware
01:11AM 44.9980 -67.2840 50° Northeast 524 603 31,000  Level FlightAware
01:11AM 45.0530 -67.1910 50° Northeast 525 604 31,000  Level FlightAware
01:12AM 45.1070 -67.1000 50° Northeast 527 606 31,000  Level FlightAware
01:13AM 45.1690 -66.9940 50° Northeast 527 606 31,000  Level FlightAware
01:13AM 45.2160 -66.9130 51° Northeast 528 608 31,000  Level FlightAware
01:14AM 45.2710 -66.8180 51° Northeast 530 610 31,000  Level FlightAware
01:14AM 45.3330 -66.7110 50° Northeast 531 611 31,000  Level FlightAware
01:15AM 45.3800 -66.6290 51° Northeast 530 610 31,000  Level FlightAware
01:15AM 45.4340 -66.5370 50° Northeast 530 610 31,000  Level FlightAware
01:16AM 45.4970 -66.4260 51° Northeast 531 611 31,000  Level FlightAware
01:17AM 45.5440 -66.3450 50° Northeast 532 612 31,000  Level FlightAware
01:17AM 45.5990 -66.2470 51° Northeast 536 617 31,000  Level FlightAware
01:18AM 45.6540 -66.1520 50° Northeast 539 620 31,000  Level FlightAware
01:18AM 45.7170 -66.0400 51° Northeast 539 620 31,000  Level FlightAware
01:19AM 45.7640 -65.9570 51° Northeast 540 621 31,000  Level FlightAware
01:19AM 45.8190 -65.8590 51° Northeast 544 626 31,000  Level FlightAware
01:20AM 45.8880 -65.7350 51° Northeast 545 627 31,000  Level FlightAware
01:21AM 45.9420 -65.6400 51° Northeast 547 629 31,000  Level FlightAware
01:21AM 45.9930 -65.5490 51° Northeast 548 631 31,000  Level FlightAware
01:22AM 46.0370 -65.4680 52° Northeast 553 636 31,000  Level FlightAware
01:23AM 46.1070 -65.3440 51° Northeast 553 636 31,000  Level FlightAware
01:23AM 46.1560 -65.2560 51° Northeast 553 636 31,000  Level FlightAware
01:24AM 46.2050 -65.1680 51° Northeast 553 636 31,000  Level FlightAware
01:24AM 46.2550 -65.0800 51° Northeast 553 636 31,000  Level FlightAware
01:25AM 46.3050 -64.9900 51° Northeast 553 636 31,000  Level FlightAware
01:26AM 46.3550 -64.9020 51° Northeast 553 636 31,000  Level FlightAware
01:26AM 46.4040 -64.8140 51° Northeast 553 636 31,000  Level FlightAware
01:27AM 46.4530 -64.7250 51° Northeast 553 636 31,000  Level FlightAware
01:27AM 46.5020 -64.6370 51° Northeast 553 636 31,000  Level FlightAware
01:28AM 46.5520 -64.5490 50° Northeast 553 636 31,000  Level FlightAware
01:29AM 46.5980 -64.4650 51° Northeast 553 636 31,000  Level FlightAware
01:29AM 46.6470 -64.3760 51° Northeast 553 636 31,000  Level FlightAware
01:30AM 46.6970 -64.2880 50° Northeast 553 636 31,000  Level FlightAware
01:30AM 46.7460 -64.1990 51° Northeast 553 636 31,000  Level FlightAware
01:31AM 46.7950 -64.1100 51° Northeast 553 636 31,000  Level FlightAware
01:32AM 46.8470 -64.0160 51° Northeast 553 636 31,000 -120 Level FlightAware
01:32AM 47.0333 -63.5833 51° Northeast 550 633 30,900 300 Descending Gander Center
01:33AM 47.1167 -63.4167 54° Northeast 540 621 31,600 960 Climbing Gander Center
01:34AM 47.2167 -63.2167 54° Northeast 540 621 32,900 600 Climbing Gander Center
01:35AM 47.3000 -63.0500 54° Northeast 550 633 32,900  Level Gander Center
01:36AM 47.4000 -62.8667 51° Northeast 540 621 32,900  Level Gander Center
01:37AM 47.4833 -62.6833 56° Northeast 540 621 32,900  Level Gander Center
01:38AM 47.5667 -62.5167 53° Northeast 540 621 32,900  Level Gander Center
01:39AM 47.6500 -62.3167 58° Northeast 540 621 32,900  Level Gander Center
01:40AM 47.7500 -62.1500 48° Northeast 540 621 32,900  Level Gander Center
01:41AM 47.8500 -61.9833 48° Northeast 540 621 32,900  Level Gander Center
01:42AM 47.9333 -61.7833 58° Northeast 540 621 32,900  Level Gander Center
01:43AM 48.0167 -61.6000 56° Northeast 550 633 32,900  Level Gander Center
01:44AM 48.1167 -61.4000 53° Northeast 550 633 32,900  Level Gander Center
01:45AM 48.2000 -61.2333 53° Northeast 550 633 32,900  Level Gander Center
01:46AM 48.2833 -61.0500 56° Northeast 550 633 32,900  Level Gander Center
01:47AM 48.3667 -60.8500 58° Northeast 550 633 32,900  Level Gander Center
01:53AM 48.8880 -59.7800 58° Northeast 532 612 33,000  Climbing FlightAware
01:54AM 48.9350 -59.6750 56° Northeast 531 611 33,000  Level FlightAware
01:55AM 48.9960 -59.5370 56° Northeast 531 611 33,000  Level FlightAware
01:55AM 49.0390 -59.4410 56° Northeast 538 619 33,000  Level FlightAware
01:56AM 49.0950 -59.3150 56° Northeast 541 623 33,000  Level FlightAware
01:56AM 49.1510 -59.1880 56° Northeast 541 623 33,000  Level FlightAware
01:57AM 49.1990 -59.0780 56° Northeast 541 623 33,000 -120 Level FlightAware
01:58AM 49.2480 -58.9670 56° Northeast 541 623 32,900  Descending FlightAware
01:58AM 49.2980 -58.8530 56° Northeast 543 625 33,000 60 Climbing FlightAware
01:59AM 49.3460 -58.7410 57° Northeast 547 629 33,000  Level FlightAware
01:59AM 49.3960 -58.6260 56° Northeast 547 629 33,000  Level FlightAware
02:00AM 49.4430 -58.5150 57° Northeast 548 631 33,000  Level FlightAware
02:01AM 49.4940 -58.3980 56° Northeast 548 631 33,000  Level FlightAware
02:01AM 49.5400 -58.2880 57° Northeast 548 631 33,000  Level FlightAware
02:02AM 49.6110 -58.1070 59° Northeast 540 621 33,000  Level FlightAware
02:03AM 49.6520 -57.9830 63° Northeast 540 621 33,000 -120 Level FlightAware
02:03AM 49.6980 -57.8470 62° Northeast 539 620 32,900 -120 Descending FlightAware
02:04AM 49.7370 -57.7310 62° Northeast 535 616 32,900 60 Level FlightAware
02:04AM 49.7790 -57.6080 62° Northeast 534 615 33,000 60 Climbing FlightAware
02:05AM 49.8190 -57.4930 62° Northeast 534 615 33,000  Level FlightAware
02:06AM 49.8600 -57.3720 62° Northeast 531 611 33,000  Level FlightAware
02:06AM 49.8990 -57.2580 62° Northeast 530 610 33,000  Level FlightAware
02:07AM 49.9390 -57.1400 62° Northeast 527 606 33,000  Level FlightAware
02:07AM 49.9790 -57.0210 62° Northeast 526 605 33,000  Level FlightAware
02:08AM 50.0180 -56.9030 63° Northeast 526 605 33,000  Level FlightAware
02:09AM 50.0550 -56.7920 63° Northeast 526 605 33,000  Level FlightAware
02:09AM 50.0950 -56.6690 63° Northeast 525 604 33,000  Level FlightAware
02:10AM 50.1340 -56.5500 63° Northeast 526 605 33,000  Level FlightAware
02:10AM 50.1730 -56.4330 62° Northeast 526 605 33,000 -120 Level FlightAware
02:11AM 50.2090 -56.3220 63° Northeast 526 605 32,900 -120 Descending FlightAware
02:11AM 50.2440 -56.2140 63° Northeast 526 605 32,900 60 Level FlightAware
02:12AM 50.2940 -56.0590 63° Northeast 526 605 33,000 60 Climbing FlightAware
02:13AM 50.3370 -55.9240 63° Northeast 528 608 33,000  Level FlightAware
02:13AM 50.3760 -55.8030 63° Northeast 529 609 33,000  Level FlightAware
02:14AM 50.4060 -55.7080 64° Northeast 530 610 33,000  Level FlightAware
02:14AM 50.4460 -55.5810 64° Northeast 532 612 33,000  Level FlightAware
02:15AM 50.4900 -55.4410 64° Northeast 533 613 33,000  Level FlightAware
02:16AM 50.5270 -55.3220 64° Northeast 533 613 33,000  Level FlightAware
02:16AM 50.5500 -55.2450 65° Northeast 533 613 33,000  Level FlightAware
02:17AM 50.6020 -55.0780 64° Northeast 533 613 33,000 -120 Level FlightAware
02:17AM 50.6340 -54.9710 65° Northeast 530 610 32,900 -120 Descending FlightAware
02:18AM 50.6680 -54.8610 64° Northeast 530 610 32,900 60 Level FlightAware
02:19AM 50.7090 -54.7260 64° Northeast 530 610 33,000 60 Climbing FlightAware
02:19AM 50.7420 -54.6190 64° Northeast 530 610 33,000  Level FlightAware
02:20AM 50.7780 -54.5040 64° Northeast 530 610 33,000  Level FlightAware
02:21AM 50.8110 -54.3970 64° Northeast 530 610 33,000  Level FlightAware
02:21AM 50.8440 -54.2900 64° Northeast 530 610 33,000  Level FlightAware
02:22AM 50.8930 -54.1300 64° Northeast 530 610 33,000  Level FlightAware
02:23AM 50.9260 -54.0230 64° Northeast 530 610 33,000 -120 Level FlightAware
02:23AM 50.9960 -53.7540 67° East 527 606 32,900  Descending FlightAware
02:24AM 51.0430 -53.5910 65° Northeast 533 613 33,000 60 Climbing FlightAware
02:25AM 51.0880 -53.4310 66° East 531 611 33,000  Level FlightAware
02:25AM 51.1220 -53.3160 65° Northeast 534 615 33,000  Level FlightAware
02:26AM 51.1560 -53.1940 66° East 534 615 33,000  Level FlightAware
02:27AM 51.1860 -53.0840 66° East 534 615 33,000  Level FlightAware
02:27AM 51.2170 -52.9740 66° East 534 615 33,000  Level FlightAware
02:28AM 51.2480 -52.8630 66° East 534 615 33,000  Level FlightAware
02:28AM 51.2790 -52.7530 66° East 534 615 33,000  Level FlightAware
02:29AM 51.3090 -52.6420 67° East 534 615 33,000  Level FlightAware
02:30AM 51.3400 -52.5320 66° East 534 615 33,000  Level FlightAware
02:30AM 51.3710 -52.4210 66° East 534 615 33,000  Level FlightAware
02:31AM 51.4020 -52.3110 66° East 534 615 33,000  Level FlightAware
02:31AM 51.4330 -52.1970 66° East 534 615 33,000  Level FlightAware
02:32AM 51.4640 -52.0860 66° East 534 615 33,000  Level FlightAware
02:33AM 51.4950 -51.9750 66° East 534 615 33,000  Level FlightAware
02:33AM 51.5250 -51.8640 66° East 534 615 33,000  Level FlightAware
02:34AM 51.5560 -51.7530 66° East 534 615 33,000  Level FlightAware
02:34AM 51.5870 -51.6420 66° East 534 615 33,000  Level FlightAware
02:35AM 51.6180 -51.5310 66° East 534 615 33,000 -120 Level FlightAware
02:36AM 51.7500 -50.8667 66° East 530 610 32,900 -60 Descending Gander Center
02:38AM 51.8500 -50.4833 67° East 480 552 32,900  Level Gander Center
02:38AM 51.8833 -50.3333 70° East 530 610 32,900  Level Gander Center
02:41AM 52.0000 -50.0000 86° East 527 606 33,000  Climbing ETMS Enhanced Traffic Management System
02:47AM 52.0588 -48.3363 87° East 527 606 33,000  Level FlightAware Transoceanic
02:48AM 52.0653 -48.0983 88° East 527 606 33,000  Level FlightAware Transoceanic
02:49AM 52.0713 -47.8602 88° East 527 606 33,000  Level FlightAware Transoceanic
02:50AM 52.0768 -47.6221 88° East 527 606 33,000  Level FlightAware Transoceanic
02:51AM 52.0819 -47.3839 88° East 527 606 33,000  Level FlightAware Transoceanic
02:52AM 52.0864 -47.1456 88° East 527 606 33,000  Level FlightAware Transoceanic
02:53AM 52.0905 -46.9073 88° East 527 606 33,000  Level FlightAware Transoceanic
02:54AM 52.0941 -46.6690 89° East 527 606 33,000  Level FlightAware Transoceanic
02:55AM 52.0973 -46.4306 89° East 527 606 33,000  Level FlightAware Transoceanic
02:56AM 52.0999 -46.1922 89° East 527 606 33,000  Level FlightAware Transoceanic
02:57AM 52.1021 -45.9538 89° East 527 606 33,000  Level FlightAware Transoceanic
02:58AM 52.1038 -45.7154 89° East 527 606 33,000  Level FlightAware Transoceanic
02:59AM 52.1050 -45.4769 90° East 527 606 33,000  Level FlightAware Transoceanic
03:00AM 52.1057 -45.2385 90° East 527 606 33,000  Level FlightAware Transoceanic
03:01AM 52.1059 -45.0000 90° East 527 606 33,000  Level FlightAware Transoceanic
03:02AM 52.1057 -44.7615 90° East 527 606 33,000  Level FlightAware Transoceanic
03:03AM 52.1050 -44.5231 90° East 527 606 33,000  Level FlightAware Transoceanic
03:04AM 52.1038 -44.2846 91° East 527 606 33,000  Level FlightAware Transoceanic
03:05AM 52.1021 -44.0462 91° East 527 606 33,000  Level FlightAware Transoceanic
03:06AM 52.0999 -43.8078 91° East 527 606 33,000  Level FlightAware Transoceanic
03:07AM 52.0973 -43.5694 91° East 527 606 33,000  Level FlightAware Transoceanic
03:08AM 52.0941 -43.3310 91° East 527 606 33,000  Level FlightAware Transoceanic
03:09AM 52.0905 -43.0927 92° East 527 606 33,000  Level FlightAware Transoceanic
03:10AM 52.0864 -42.8544 92° East 527 606 33,000  Level FlightAware Transoceanic
03:11AM 52.0819 -42.6161 92° East 527 606 33,000  Level FlightAware Transoceanic
03:12AM 52.0768 -42.3779 92° East 527 606 33,000  Level FlightAware Transoceanic
03:13AM 52.0713 -42.1398 92° East 527 606 33,000  Level FlightAware Transoceanic
03:14AM 52.0653 -41.9017 92° East 527 606 33,000  Level FlightAware Transoceanic
03:15AM 52.0588 -41.6637 93° East 527 606 33,000  Level FlightAware Transoceanic
03:16AM 52.0518 -41.4258 93° East 527 606 33,000  Level FlightAware Transoceanic
03:17AM 52.0444 -41.1880 93° East 527 606 33,000  Level FlightAware Transoceanic
03:18AM 52.0365 -40.9502 93° East 527 606 33,000  Level FlightAware Transoceanic
03:19AM 52.0281 -40.7125 93° East 527 606 33,000  Level FlightAware Transoceanic
03:20AM 52.0192 -40.4749 94° East 527 606 33,000  Level FlightAware Transoceanic
03:21AM 52.0098 -40.2374 94° East 527 606 33,000  Level FlightAware Transoceanic
03:22AM 52.0003 -40.0075 94° East  Level FlightAware Approximate
03:23AM 51.9903 -39.7777 94° East  Level FlightAware Approximate
03:24AM 52.0084 -39.7851 86° East  Level FlightAware Approximate
03:24AM 52.0000 -40.0000 86° East 503 579 33,000  Level ETMS Enhanced Traffic Management System
03:25AM 52.0169 -39.5551 86° East  Level FlightAware Approximate
03:26AM 52.0250 -39.3250 87° East  Level FlightAware Approximate
03:27AM 52.0326 -39.0948 87° East  Level FlightAware Approximate
03:28AM 52.0398 -38.8645 87° East  Level FlightAware Approximate
03:29AM 52.0466 -38.6342 87° East  Level FlightAware Approximate
03:30AM 52.0566 -38.4120 87° East 503 579 33,000  Level FlightAware Transoceanic
03:31AM 52.0630 -38.1848 87° East 503 579 33,000  Level FlightAware Transoceanic
03:32AM 52.0689 -37.9576 88° East 503 579 33,000  Level FlightAware Transoceanic
03:33AM 52.0744 -37.7303 88° East 503 579 33,000  Level FlightAware Transoceanic
03:34AM 52.0794 -37.5030 88° East 503 579 33,000  Level FlightAware Transoceanic
03:35AM 52.0840 -37.2756 88° East 503 579 33,000  Level FlightAware Transoceanic
03:36AM 52.0882 -37.0481 88° East 503 579 33,000  Level FlightAware Transoceanic
03:37AM 52.0919 -36.8207 89° East 503 579 33,000  Level FlightAware Transoceanic
03:38AM 52.0952 -36.5932 89° East 503 579 33,000  Level FlightAware Transoceanic
03:39AM 52.0980 -36.3656 89° East 503 579 33,000  Level FlightAware Transoceanic
03:40AM 52.1004 -36.1381 89° East 503 579 33,000  Level FlightAware Transoceanic
03:41AM 52.1024 -35.9105 89° East 503 579 33,000  Level FlightAware Transoceanic
03:42AM 52.1040 -35.6829 89° East 503 579 33,000  Level FlightAware Transoceanic
03:43AM 52.1050 -35.4553 90° East 503 579 33,000  Level FlightAware Transoceanic
03:44AM 52.1057 -35.2276 90° East 503 579 33,000  Level FlightAware Transoceanic
03:45AM 52.1059 -35.0000 90° East 503 579 33,000  Level FlightAware Transoceanic
03:46AM 52.1057 -34.7724 90° East 503 579 33,000  Level FlightAware Transoceanic
03:47AM 52.1050 -34.5447 90° East 503 579 33,000  Level FlightAware Transoceanic
03:48AM 52.1040 -34.3171 91° East 503 579 33,000  Level FlightAware Transoceanic
03:49AM 52.1024 -34.0895 91° East 503 579 33,000  Level FlightAware Transoceanic
03:50AM 52.1004 -33.8619 91° East 503 579 33,000  Level FlightAware Transoceanic
03:51AM 52.0980 -33.6344 91° East 503 579 33,000  Level FlightAware Transoceanic
03:52AM 52.0952 -33.4068 91° East 503 579 33,000  Level FlightAware Transoceanic
03:53AM 52.0919 -33.1793 91° East 503 579 33,000  Level FlightAware Transoceanic
03:54AM 52.0882 -32.9519 92° East 503 579 33,000  Level FlightAware Transoceanic
03:55AM 52.0840 -32.7244 92° East 503 579 33,000  Level FlightAware Transoceanic
03:56AM 52.0794 -32.4970 92° East 503 579 33,000  Level FlightAware Transoceanic
03:57AM 52.0744 -32.2697 92° East 503 579 33,000  Level FlightAware Transoceanic
03:58AM 52.0689 -32.0424 92° East 503 579 33,000  Level FlightAware Transoceanic
03:59AM 52.0630 -31.8152 93° East 503 579 33,000  Level FlightAware Transoceanic
04:00AM 52.0566 -31.5880 93° East 503 579 33,000  Level FlightAware Transoceanic
04:01AM 52.0499 -31.3609 93° East 503 579 33,000  Level FlightAware Transoceanic
04:02AM 52.0426 -31.1339 93° East 503 579 33,000  Level FlightAware Transoceanic
04:03AM 52.0350 -30.9070 93° East 503 579 33,000  Level FlightAware Transoceanic
04:04AM 52.0269 -30.6801 93° East 503 579 33,000  Level FlightAware Transoceanic
04:05AM 52.0184 -30.4533 94° East 503 579 33,000  Level FlightAware Transoceanic
04:06AM 52.0094 -30.2266 94° East 503 579 33,000  Level FlightAware Transoceanic
04:07AM 51.9999 -29.9971 94° East  Level FlightAware Approximate
04:08AM 52.0002 -29.9942 86° East  Level FlightAware Approximate
04:09AM 52.0092 -29.7647 86° East  Level FlightAware Approximate
04:10AM 52.0176 -29.5350 86° East  Level FlightAware Approximate
04:10AM 52.0000 -30.0000 86° East 481 554 33,000  Level ETMS Enhanced Traffic Management System
04:11AM 52.0257 -29.3053 87° East  Level FlightAware Approximate
04:12AM 52.0332 -29.0755 87° East  Level FlightAware Approximate
04:13AM 52.0404 -28.8456 87° East  Level FlightAware Approximate
04:14AM 52.0471 -28.6157 87° East  Level FlightAware Approximate
04:15AM 52.0533 -28.3860 87° East  Level FlightAware Approximate
04:16AM 52.0546 -28.4811 87° East 481 554 33,000  Level FlightAware Transoceanic
04:17AM 52.0608 -28.2638 87° East 481 554 33,000  Level FlightAware Transoceanic
04:18AM 52.0667 -28.0465 88° East 481 554 33,000  Level FlightAware Transoceanic
04:19AM 52.0720 -27.8291 88° East 481 554 33,000  Level FlightAware Transoceanic
04:20AM 52.0771 -27.6117 88° East 481 554 33,000  Level FlightAware Transoceanic
04:21AM 52.0817 -27.3942 88° East 481 554 33,000  Level FlightAware Transoceanic
04:22AM 52.0859 -27.1767 88° East 481 554 33,000  Level FlightAware Transoceanic
04:23AM 52.0897 -26.9591 88° East 481 554 33,000  Level FlightAware Transoceanic
04:24AM 52.0931 -26.7416 89° East 481 554 33,000  Level FlightAware Transoceanic
04:25AM 52.0961 -26.5239 89° East 481 554 33,000  Level FlightAware Transoceanic
04:26AM 52.0987 -26.3063 89° East 481 554 33,000  Level FlightAware Transoceanic
04:27AM 52.1009 -26.0886 89° East 481 554 33,000  Level FlightAware Transoceanic
04:28AM 52.1027 -25.8709 89° East 481 554 33,000  Level FlightAware Transoceanic
04:29AM 52.1041 -25.6532 89° East 481 554 33,000  Level FlightAware Transoceanic
04:30AM 52.1051 -25.4355 90° East 481 554 33,000  Level FlightAware Transoceanic
04:31AM 52.1057 -25.2177 90° East 481 554 33,000  Level FlightAware Transoceanic
04:32AM 52.1059 -25.0000 90° East 481 554 33,000  Level FlightAware Transoceanic
04:33AM 52.1057 -24.7823 90° East 481 554 33,000  Level FlightAware Transoceanic
04:34AM 52.1051 -24.5645 90° East 481 554 33,000  Level FlightAware Transoceanic
04:35AM 52.1041 -24.3468 91° East 481 554 33,000  Level FlightAware Transoceanic
04:36AM 52.1027 -24.1291 91° East 481 554 33,000  Level FlightAware Transoceanic
04:37AM 52.1009 -23.9114 91° East 481 554 33,000  Level FlightAware Transoceanic
04:38AM 52.0987 -23.6937 91° East 481 554 33,000  Level FlightAware Transoceanic
04:39AM 52.0961 -23.4761 91° East 481 554 33,000  Level FlightAware Transoceanic
04:40AM 52.0931 -23.2584 91° East 481 554 33,000  Level FlightAware Transoceanic
04:41AM 52.0897 -23.0409 92° East 481 554 33,000  Level FlightAware Transoceanic
04:42AM 52.0859 -22.8233 92° East 481 554 33,000  Level FlightAware Transoceanic
04:43AM 52.0817 -22.6058 92° East 481 554 33,000  Level FlightAware Transoceanic
04:44AM 52.0771 -22.3883 92° East 481 554 33,000  Level FlightAware Transoceanic
04:45AM 52.0720 -22.1709 92° East 481 554 33,000  Level FlightAware Transoceanic
04:46AM 52.0667 -21.9535 92° East 481 554 33,000  Level FlightAware Transoceanic
04:47AM 52.0608 -21.7362 93° East 481 554 33,000  Level FlightAware Transoceanic
04:48AM 52.0546 -21.5189 93° East 481 554 33,000  Level FlightAware Transoceanic
04:49AM 52.0480 -21.3017 93° East 481 554 33,000  Level FlightAware Transoceanic
04:50AM 52.0410 -21.0846 93° East 481 554 33,000  Level FlightAware Transoceanic
04:51AM 52.0336 -20.8675 93° East 481 554 33,000  Level FlightAware Transoceanic
04:52AM 52.0258 -20.6505 93° East 481 554 33,000  Level FlightAware Transoceanic
04:53AM 52.0176 -20.4336 94° East 481 554 33,000  Level FlightAware Transoceanic
04:54AM 52.0090 -20.2167 94° East 481 554 33,000  Level FlightAware Transoceanic
04:55AM 51.9995 -19.9876 94° East  Level FlightAware Approximate
04:56AM 52.0009 -19.9753 86° East  Level FlightAware Approximate
04:57AM 52.0093 -19.7461 86° East  Level FlightAware Approximate
04:58AM 52.0173 -19.5172 87° East  Level FlightAware Approximate
04:59AM 52.0248 -19.2882 87° East  Level FlightAware Approximate
05:00AM 52.0319 -19.0591 87° East  Level FlightAware Approximate
05:01AM 52.0385 -18.8300 87° East  Level FlightAware Approximate
05:02AM 52.0447 -18.6008 87° East  Level FlightAware Approximate
05:03AM 52.0504 -18.3715 88° East  Level FlightAware Approximate
05:04AM 52.0557 -18.1422 88° East  Level FlightAware Approximate
05:05AM 52.0606 -17.9128 88° East  Level FlightAware Approximate
05:06AM 52.0650 -17.6834 88° East  Level FlightAware Approximate
05:07AM 52.0689 -17.4539 88° East  Level FlightAware Approximate
05:08AM 52.0724 -17.2244 88° East  Level FlightAware Approximate
05:09AM 52.0755 -16.9949 89° East  Level FlightAware Approximate
05:10AM 52.0781 -16.7653 89° East  Level FlightAware Approximate
05:11AM 52.0803 -16.5357 89° East  Level FlightAware Approximate
05:12AM 52.0820 -16.3061 89° East  Level FlightAware Approximate
05:13AM 52.0833 -16.0765 89° East  Level FlightAware Approximate
05:14AM 52.0841 -15.8469 90° East  Level FlightAware Approximate
05:15AM 52.0845 -15.6173 90° East  Level FlightAware Approximate
05:16AM 52.0844 -15.3876 90° East  Level FlightAware Approximate
05:17AM 52.0839 -15.1580 90° East  Level FlightAware Approximate
05:18AM 52.0832 -14.9283 90° East  Level FlightAware Approximate
05:19AM 52.0824 -14.6987 90° East  Level FlightAware Approximate
05:20AM 52.0812 -14.4691 90° East  Level FlightAware Approximate
05:21AM 52.0796 -14.2395 91° East  Level FlightAware Approximate
05:22AM 52.0775 -14.0099 91° East  Level FlightAware Approximate
05:23AM 52.0750 -13.7803 91° East  Level FlightAware Approximate
05:24AM 52.0720 -13.5508 91° East  Level FlightAware Approximate
05:25AM 52.0686 -13.3213 91° East  Level FlightAware Approximate
05:26AM 52.0647 -13.0918 91° East  Level FlightAware Approximate
05:27AM 52.0604 -12.8624 92° East  Level FlightAware Approximate
05:28AM 52.0556 -12.6330 92° East  Level FlightAware Approximate
05:29AM 52.0504 -12.4037 92° East  Level FlightAware Approximate
05:30AM 52.0448 -12.1744 92° East  Level FlightAware Approximate
05:31AM 52.0387 -11.9452 92° East  Level FlightAware Approximate
05:31AM 51.9960 -11.5270 92° East 531 611 34,900  Level FlightAware
05:31AM 51.9930 -11.3920 92° East 525 604 34,900  Level FlightAware
05:32AM 51.9900 -11.2430 92° East 520 598 34,900 60 Level FlightAware
05:32AM 51.9860 -11.0840 92° East 514 592 35,000 60 Climbing FlightAware
05:33AM 51.9820 -10.9330 92° East 512 589 35,000  Level FlightAware
05:34AM 51.9790 -10.8050 92° East 511 588 35,000  Level FlightAware
05:34AM 51.9740 -10.6470 93° East 512 589 35,000  Level FlightAware
05:35AM 51.9700 -10.4930 92° East 525 604 35,000 -120 Level FlightAware
05:36AM 51.9670 -10.3780 92° East 529 609 34,900  Descending FlightAware
05:36AM 51.9620 -10.2150 93° East 528 608 35,000 60 Climbing FlightAware
05:37AM 51.9580 -10.0970 93° East 527 606 35,000 -120 Level FlightAware
05:37AM 51.9520 -9.9210 93° East 527 606 34,900  Descending FlightAware
05:38AM 51.9470 -9.7800 93° East 526 605 35,000 60 Climbing FlightAware
05:39AM 51.9420 -9.6410 93° East 526 605 35,000  Level FlightAware
05:39AM 51.9370 -9.5010 93° East 528 608 35,000  Level FlightAware
05:39AM 51.9350 -9.4400 93° East 528 608 35,000 -120 Level FlightAware
05:40AM 51.9250 -9.2070 94° East 527 606 34,900 -120 Descending FlightAware
05:41AM 51.9200 -9.0710 93° East 525 604 34,900 60 Level FlightAware
05:42AM 51.9150 -8.9560 94° East 523 602 35,000 120 Climbing FlightAware
05:42AM 51.9130 -8.8950 93° East 523 602 35,000  Level FlightAware
05:43AM 51.9030 -8.6690 93° East 521 600 35,000 -120 Level FlightAware
05:43AM 51.8915 -8.6335 93° East 1 1 34,900 -240 Descending FlightAware UK
05:43AM 51.8861 -8.5170 93° East 1 1 34,900 180 Level FlightAware UK
05:43AM 51.8980 -8.5520 93° East 519 597 35,000  Climbing FlightAware
05:44AM 51.8806 -8.4009 93° East 1 1 34,900  Descending FlightAware UK
05:44AM 51.8910 -8.4090 93° East 516 594 35,000 120 Climbing FlightAware
05:44AM 51.8840 -8.2700 95° East 516 594 35,000 -120 Level FlightAware
05:45AM 51.8770 -8.1180 94° East 518 596 34,900 -120 Descending FlightAware
05:46AM 51.8598 -7.9393 94° East 1 1 34,900  Level FlightAware UK
05:46AM 51.8700 -7.9840 94° East 518 596 34,900  Level FlightAware
05:46AM 51.8544 -7.8240 94° East 1 1 34,900 120 Level FlightAware UK
05:46AM 51.8610 -7.8070 94° East 522 601 35,000 120 Climbing FlightAware
05:47AM 51.8540 -7.6630 94° East 526 605 35,000  Level FlightAware
05:48AM 51.8470 -7.5410 95° East 527 606 35,000  Level FlightAware
05:48AM 51.8400 -7.4050 95° East 529 609 35,000  Level FlightAware
05:49AM 51.8320 -7.2570 95° East 531 611 35,000  Level FlightAware
05:49AM 51.8240 -7.1230 95° East 534 615 35,000 -120 Level FlightAware
05:50AM 51.8170 -6.9910 95° East 536 617 34,900 -120 Descending FlightAware
05:51AM 51.8080 -6.8440 96° East 537 618 34,900 60 Level FlightAware
05:51AM 51.8020 -6.7050 94° East 539 620 35,000  Climbing FlightAware
05:52AM 51.7980 -6.5690 93° East 540 621 34,900  Descending FlightAware
05:52AM 51.7930 -6.4380 93° East 541 623 35,000 60 Climbing FlightAware
05:53AM 51.7880 -6.3090 93° East 541 623 35,000 -180 Level FlightAware
05:53AM 51.7777 -6.2760 93° East 498 573 34,900 -240 Descending FlightAware UK
05:53AM 51.7728 -6.1560 93° East 498 573 34,900 120 Level FlightAware UK
05:53AM 51.7820 -6.1660 93° East 541 623 35,000 120 Climbing FlightAware
05:54AM 51.7760 -6.0260 94° East 541 623 35,000  Level FlightAware
05:55AM 51.7690 -5.8830 94° East 542 624 35,000  Level FlightAware
05:55AM 51.7630 -5.7530 94° East 542 624 35,000  Level FlightAware
05:56AM 51.7560 -5.6020 94° East 542 624 35,000  Level FlightAware
05:56AM 51.7490 -5.4480 94° East 543 625 35,000  Level FlightAware
05:57AM 51.7420 -5.3230 95° East 545 627 35,000 -120 Level FlightAware
05:57AM 51.7350 -5.1760 94° East 548 631 34,900  Descending FlightAware
05:58AM 51.7270 -5.0240 95° East 550 633 35,000  Climbing FlightAware
05:59AM 51.7099 -4.8702 95° East 494 568 34,900 -240 Descending FlightAware UK
05:59AM 51.7200 -4.8950 95° East 553 636 34,900  Level FlightAware
05:59AM 51.7130 -4.7650 95° East 555 639 34,900  Level FlightAware
05:59AM 51.7016 -4.7224 95° East 496 571 34,900  Level FlightAware UK
06:00AM 51.6945 -4.5988 95° East 496 571 34,900 120 Level FlightAware UK
06:00AM 51.7040 -4.5900 95° East 557 641 35,000 120 Climbing FlightAware
06:00AM 51.6960 -4.4560 95° East 560 644 35,000 -120 Level FlightAware
06:01AM 51.6880 -4.3050 95° East 561 646 34,900  Descending FlightAware
06:02AM 51.6790 -4.1560 96° East 561 646 35,000 60 Climbing FlightAware
06:02AM 51.6710 -4.0230 95° East 562 647 35,000  Level FlightAware
06:03AM 51.6620 -3.8730 95° East 562 647 35,000  Level FlightAware
06:03AM 51.6530 -3.7400 96° East 563 648 35,000 -120 Level FlightAware
06:04AM 51.6440 -3.5970 96° East 563 648 34,900 -180 Descending FlightAware
06:04AM 51.6306 -3.5509 96° East 502 578 34,900  Level FlightAware UK
06:04AM 51.6225 -3.4253 96° East 498 573 34,900 120 Level FlightAware UK
06:05AM 51.6319 -3.4061 96° East 564 649 35,000 60 Climbing FlightAware ADS-B
06:05AM 51.6203 -3.2315 96° East 565 650 35,000  Level FlightAware ADS-B
06:06AM 51.6113 -3.0994 96° East 566 651 35,000  Level FlightAware ADS-B
06:06AM 51.6020 -2.9649 96° East 569 655 35,000  Level FlightAware ADS-B
06:07AM 51.5929 -2.8361 96° East 570 656 35,000  Level FlightAware ADS-B
06:07AM 51.5833 -2.7017 97° East 572 658 35,000  Level FlightAware ADS-B
06:08AM 51.5727 -2.5557 97° East 574 661 35,000  Level FlightAware ADS-B
06:08AM 51.5634 -2.4281 97° East 574 661 35,000  Level FlightAware ADS-B
06:09AM 51.5521 -2.2771 97° East 574 661 35,000  Level FlightAware ADS-B
06:10AM 51.5416 -2.1378 97° East 573 659 35,000  Level FlightAware ADS-B
06:10AM 51.5315 -2.0071 97° East 573 659 35,000  Level FlightAware ADS-B
06:11AM 51.5212 -1.8760 97° East 573 659 35,000  Level FlightAware ADS-B
06:11AM 51.5112 -1.7483 97° East 573 659 35,000  Level FlightAware ADS-B
06:12AM 51.5006 -1.6187 97° East 573 659 35,000  Level FlightAware ADS-B
06:12AM 51.4898 -1.4857 97° East 573 659 35,000 -120 Level FlightAware ADS-B
06:13AM 51.4790 -1.3550 98° East 574 661 34,900  Descending FlightAware ADS-B
06:13AM 51.4681 -1.2260 98° East 573 659 35,000 60 Climbing FlightAware ADS-B
06:14AM 51.4564 -1.0876 98° East 572 658 35,000 -120 Level FlightAware ADS-B
06:14AM 51.4468 -0.9658 97° East 572 658 34,900  Descending FlightAware ADS-B
06:15AM 51.4407 -0.8280 94° East 572 658 35,000 60 Climbing FlightAware ADS-B
06:15AM 51.4350 -0.6946 94° East 573 659 35,000 -120 Level FlightAware ADS-B
06:16AM 51.4297 -0.5668 94° East 573 659 34,900 -120 Descending FlightAware ADS-B
06:16AM 51.4237 -0.4321 94° East 572 658 34,900 60 Level FlightAware ADS-B
06:17AM 51.4177 -0.2986 94° East 572 658 35,000 60 Climbing FlightAware ADS-B
06:17AM 51.4119 -0.1704 94° East 573 659 35,000  Level FlightAware ADS-B
06:18AM 51.4057 -0.0377 94° East 573 659 35,000  Level FlightAware ADS-B
06:18AM 51.3997 0.0882 94° East 573 659 35,000  Level FlightAware ADS-B
06:19AM 51.3931 0.2225 94° East 572 658 35,000  Level FlightAware ADS-B
06:19AM 51.3853 0.3740 95° East 571 657 35,000  Level FlightAware ADS-B
06:20AM 51.3774 0.5198 95° East 571 657 35,000  Level FlightAware ADS-B
06:20AM 51.3712 0.6215 96° East 570 656 35,000  Level FlightAware ADS-B
06:21AM 51.3560 0.7517 101° East 570 656 35,000  Level FlightAware ADS-B
06:22AM 51.3382 0.8879 102° East 570 656 35,000  Level FlightAware ADS-B
06:22AM 51.3215 1.0187 101° East 570 656 35,000  Level FlightAware ADS-B
06:23AM 51.3046 1.1535 101° East 571 657 35,000 -120 Level FlightAware ADS-B
06:23AM 51.2715 1.2862 101° East 498 573 34,900  Descending FlightAware UK
06:23AM 51.2790 1.3560 101° East 570 656 35,000 60 Climbing FlightAware
06:24AM 51.2610 1.5030 101° East 570 656 35,000 -120 Level FlightAware
06:25AM 51.2440 1.6400 101° East 570 656 34,900  Descending FlightAware
06:25AM 51.2300 1.7570 101° East 570 656 35,000 60 Climbing FlightAware
06:26AM 51.2060 1.9410 102° East 569 655 35,000  Level FlightAware
06:26AM 51.1940 2.0030 107° East 564 649 35,000  Level FlightAware
06:27AM 51.1580 2.1240 115° Southeast 562 647 35,000  Level FlightAware
06:27AM 51.1115 2.2712 117° Southeast 563 648 35,000  Level FlightAware ADS-B
06:28AM 51.0717 2.4036 116° Southeast 563 648 35,000  Level FlightAware ADS-B
06:28AM 51.0400 2.5110 115° Southeast 564 649 35,000  Level FlightAware
06:29AM 50.9990 2.6470 116° Southeast 563 648 35,000 -120 Level FlightAware
06:30AM 50.9550 2.7870 116° Southeast 563 648 34,900  Descending FlightAware
06:30AM 50.9140 2.9140 117° Southeast 562 647 35,000 60 Climbing FlightAware
06:31AM 50.8760 3.0330 117° Southeast 562 647 35,000  Level FlightAware
06:31AM 50.8350 3.1630 117° Southeast 562 647 35,000 -180 Level FlightAware
06:31AM 50.8114 3.1805 117° Southeast 502 578 34,900  Descending FlightAware UK
06:32AM 50.7960 3.2820 117° Southeast 561 646 35,000  Climbing FlightAware
06:32AM 50.7345 3.4218 117° Southeast 500 575 34,900  Descending FlightAware UK
06:32AM 50.7580 3.4020 117° Southeast 560 644 35,000 120 Climbing FlightAware
06:33AM 50.7180 3.5280 117° Southeast 560 644 35,000 -120 Level FlightAware
06:34AM 50.6790 3.6470 117° Southeast 560 644 34,900  Descending FlightAware
06:34AM 50.6350 3.7830 117° Southeast 559 643 35,000 60 Climbing FlightAware
06:35AM 50.5880 3.9260 117° Southeast 558 642 35,000  Level FlightAware
06:35AM 50.5540 4.0300 117° Southeast 557 641 35,000 -120 Level FlightAware
06:36AM 50.4871 4.1826 117° Southeast 500 575 34,900  Descending FlightAware UK
06:36AM 50.5070 4.1740 117° Southeast 555 639 35,000 180 Climbing FlightAware
06:36AM 50.4710 4.2810 118° Southeast 555 639 35,000  Level FlightAware
06:37AM 50.4230 4.4250 118° Southeast 553 636 35,000 -120 Level FlightAware
06:38AM 50.3790 4.5540 118° Southeast 553 636 34,900  Descending FlightAware
06:38AM 50.3460 4.6530 118° Southeast 553 636 35,000 60 Climbing FlightAware
06:39AM 50.3050 4.7730 118° Southeast 551 634 35,000  Level FlightAware
06:39AM 50.2580 4.9130 118° Southeast 550 633 35,000  Level FlightAware
06:40AM 50.2140 5.0410 118° Southeast 550 633 35,000  Level FlightAware
06:41AM 50.1780 5.1450 118° Southeast 549 632 35,000  Level FlightAware
06:41AM 50.1280 5.2890 118° Southeast 549 632 35,000  Level FlightAware
06:42AM 50.0900 5.3960 119° Southeast 549 632 35,000  Level FlightAware
06:42AM 50.0460 5.5220 118° Southeast 549 632 35,000  Level FlightAware
06:43AM 50.0050 5.6410 118° Southeast 550 633 35,000  Level FlightAware
06:44AM 49.9620 5.7610 119° Southeast 550 633 35,000  Level FlightAware
06:44AM 49.9080 5.9140 119° Southeast 549 632 35,000  Level FlightAware
06:45AM 49.8620 6.0430 119° Southeast 548 631 35,000  Level FlightAware
06:45AM 49.8180 6.1630 120° Southeast 549 632 35,000  Level FlightAware
06:46AM 49.7760 6.2790 119° Southeast 548 631 35,000  Level FlightAware
06:47AM 49.7390 6.3830 119° Southeast 548 631 35,000  Level FlightAware
06:47AM 49.6920 6.5120 119° Southeast 548 631 35,000 -120 Level FlightAware
06:48AM 49.6460 6.6370 120° Southeast 547 629 34,900  Descending FlightAware
06:48AM 49.6020 6.7570 119° Southeast 547 629 35,000 60 Climbing FlightAware
06:49AM 49.5570 6.8780 120° Southeast 546 628 35,000  Level FlightAware
06:49AM 49.5180 6.9820 120° Southeast 548 631 35,000 -120 Level FlightAware
06:50AM 49.4710 7.1090 120° Southeast 548 631 34,900  Descending FlightAware
06:51AM 49.4250 7.2320 120° Southeast 548 631 35,000 60 Climbing FlightAware
06:51AM 49.3880 7.3300 120° Southeast 548 631 35,000  Level FlightAware
06:52AM 49.3390 7.4610 120° Southeast 547 629 35,000  Level FlightAware
06:52AM 49.2920 7.5830 121° Southeast 546 628 35,000  Level FlightAware
06:53AM 49.2520 7.6900 120° Southeast 545 627 35,000  Level FlightAware
06:54AM 49.2080 7.8030 121° Southeast 545 627 35,000  Level FlightAware
06:54AM 49.1620 7.9240 120° Southeast 543 625 35,000  Level FlightAware
06:55AM 49.1220 8.0250 121° Southeast 543 625 35,000 -120 Level FlightAware
06:55AM 49.0720 8.1530 121° Southeast 542 624 34,900  Descending FlightAware
06:56AM 49.0350 8.2490 120° Southeast 543 625 35,000 60 Climbing FlightAware
06:56AM 48.9830 8.3730 123° Southeast 540 621 35,000 -120 Level FlightAware
06:57AM 48.9240 8.4790 130° Southeast 539 620 34,900  Descending FlightAware
06:58AM 48.8620 8.5780 134° Southeast 538 619 35,000  Climbing FlightAware
06:58AM 48.7970 8.6740 136° Southeast 539 620 34,900  Descending FlightAware
06:59AM 48.7320 8.7700 136° Southeast 539 620 35,000  Climbing FlightAware
07:01AM 48.6125 9.0719 121° Southeast  Level Estimated
07:02AM 48.5396 9.2542 121° Southeast  Level Estimated
07:02AM 48.4780 9.1470 121° Southeast 538 619 34,900  Level FlightAware
07:02AM 48.4310 9.2170 135° Southeast 538 619 34,900 60 Level FlightAware
07:03AM 48.3560 9.3270 136° Southeast 537 618 35,000  Climbing FlightAware
07:03AM 48.2720 9.4490 136° Southeast 536 617 34,900 -120 Descending FlightAware
07:04AM 48.2070 9.5430 136° Southeast 534 615 34,900  Level FlightAware
07:05AM 48.1240 9.6620 136° Southeast 532 612 34,900  Level FlightAware
07:06AM 48.0230 9.8070 136° Southeast 531 611 35,000 60 Climbing FlightAware
07:06AM 47.9500 9.9100 137° Southeast 532 612 35,000  Level FlightAware
07:07AM 47.8850 10.0030 136° Southeast 532 612 35,000 -120 Level FlightAware
07:07AM 47.8220 10.0920 136° Southeast 532 612 34,900  Descending FlightAware
07:08AM 47.7690 10.1660 137° Southeast 532 612 35,000  Climbing FlightAware
07:09AM 47.6980 10.2660 137° Southeast 534 615 34,900  Descending FlightAware
07:09AM 47.6460 10.3390 137° Southeast 534 615 35,000 60 Climbing FlightAware
07:10AM 47.5810 10.4300 137° Southeast 534 615 35,000  Level FlightAware
07:10AM 47.5100 10.5280 137° Southeast 534 615 35,000  Level FlightAware
07:11AM 47.4580 10.6010 136° Southeast 532 612 35,000 -120 Level FlightAware
07:11AM 47.3870 10.6990 137° Southeast 530 610 34,900  Descending FlightAware
07:12AM 47.3250 10.7830 137° Southeast 528 608 35,000  Climbing FlightAware
07:13AM 47.2690 10.8610 137° Southeast 526 605 34,900  Descending FlightAware
07:13AM 47.1990 10.9560 137° Southeast 524 603 35,000 60 Climbing FlightAware
07:14AM 47.1330 11.0490 136° Southeast 524 603 35,000  Level FlightAware
07:14AM 47.0780 11.1320 134° Southeast 524 603 35,000  Level FlightAware
07:15AM 47.0260 11.2110 134° Southeast 525 604 35,000 -120 Level FlightAware
07:16AM 46.9610 11.3090 134° Southeast 526 605 34,900 -120 Descending FlightAware
07:16AM 46.9050 11.3960 133° Southeast 525 604 34,900 60 Level FlightAware
07:17AM 46.8450 11.4880 134° Southeast 524 603 35,000  Climbing FlightAware
07:17AM 46.7870 11.5760 134° Southeast 525 604 34,900  Descending FlightAware
07:18AM 46.7230 11.6740 134° Southeast 525 604 35,000  Climbing FlightAware
07:18AM 46.6680 11.7560 134° Southeast 525 604 34,900 -120 Descending FlightAware
07:19AM 46.5960 11.8650 134° Southeast 525 604 34,900 60 Level FlightAware
07:20AM 46.5510 11.9330 134° Southeast 519 597 35,000  Climbing FlightAware
07:21AM 46.4390 12.1000 134° Southeast 526 605 34,900 -120 Descending FlightAware
07:21AM 46.3860 12.1800 134° Southeast 525 604 34,900 60 Level FlightAware
07:22AM 46.3230 12.2730 134° Southeast 522 601 35,000 120 Climbing FlightAware
07:22AM 46.3050 12.2990 135° Southeast 522 601 35,000  Level FlightAware
07:23AM 46.2100 12.4410 134° Southeast 517 595 35,000 -120 Level FlightAware
07:24AM 46.1420 12.5410 134° Southeast 517 595 34,900  Descending FlightAware
07:24AM 46.0830 12.6270 135° Southeast 522 601 35,000 420 Climbing FlightAware
07:25AM 46.0170 12.7070 140° Southeast 522 601 35,400 900 Climbing FlightAware
07:25AM 45.9730 12.7590 141° Southeast 524 603 35,900 1,200 Climbing FlightAware
07:26AM 45.9260 12.8400 130° Southeast 520 598 36,500 960 Climbing FlightAware
07:26AM 45.8710 12.9370 129° Southeast 520 598 37,000 360 Climbing FlightAware
07:27AM 45.8070 13.0450 130° Southeast 520 598 37,000  Level FlightAware
07:27AM 45.7580 13.1250 131° Southeast 518 596 37,000 -120 Level FlightAware
07:28AM 45.6950 13.2260 132° Southeast 517 595 36,900  Descending FlightAware
07:29AM 45.6420 13.3140 131° Southeast 516 594 37,000 60 Climbing FlightAware
07:29AM 45.5880 13.4100 129° Southeast 520 598 37,000  Level FlightAware
07:30AM 45.5410 13.4930 129° Southeast 515 593 37,000  Level FlightAware
07:31AM 45.4740 13.6120 129° Southeast 516 594 37,000  Level FlightAware
07:31AM 45.4220 13.7010 130° Southeast 514 592 37,000  Level FlightAware
07:32AM 45.3680 13.7960 129° Southeast 514 592 37,000  Level FlightAware
07:32AM 45.3130 13.8910 129° Southeast 513 590 37,000  Level FlightAware
07:33AM 45.2610 13.9800 130° Southeast 513 590 37,000  Level FlightAware
07:33AM 45.2100 14.0680 129° Southeast 512 589 37,000  Level FlightAware
07:34AM 45.1550 14.1630 129° Southeast 513 590 37,000  Level FlightAware
07:35AM 45.0990 14.2590 130° Southeast 513 590 37,000  Level FlightAware
07:35AM 45.0380 14.3640 129° Southeast 513 590 37,000 -120 Level FlightAware
07:36AM 44.9850 14.4530 130° Southeast 514 592 36,900  Descending FlightAware
07:36AM 44.9310 14.5440 130° Southeast 513 590 37,000 60 Climbing FlightAware
07:37AM 44.8690 14.6500 130° Southeast 518 596 37,000  Level FlightAware
07:38AM 44.8110 14.7480 130° Southeast 512 589 37,000  Level FlightAware
07:38AM 44.7610 14.8310 130° Southeast 511 588 37,000  Level FlightAware
07:39AM 44.6960 14.9400 130° Southeast 510 587 37,000  Level FlightAware
07:40AM 44.6540 15.0100 130° Southeast 509 586 37,000  Level FlightAware
07:41AM 44.5720 15.1470 130° Southeast 507 583 37,000  Level FlightAware
07:41AM 44.4790 15.3000 130° Southeast 506 582 37,000  Level FlightAware
07:42AM 44.4210 15.3980 130° Southeast 507 583 37,000 -120 Level FlightAware
07:43AM 44.3430 15.5240 131° Southeast 506 582 36,900  Descending FlightAware
07:43AM 44.2870 15.6150 131° Southeast 505 581 37,000 60 Climbing FlightAware
07:44AM 44.2330 15.7020 131° Southeast 504 580 37,000  Level FlightAware
07:45AM 44.1840 15.7810 131° Southeast 504 580 37,000  Level FlightAware
07:45AM 44.1310 15.8670 131° Southeast 504 580 37,000  Level FlightAware
07:46AM 44.0720 15.9620 131° Southeast 504 580 37,000  Level FlightAware
07:46AM 44.0170 16.0500 131° Southeast 504 580 37,000  Level FlightAware
07:47AM 43.9660 16.1320 131° Southeast 504 580 37,000  Level FlightAware
07:47AM 43.9170 16.2100 131° Southeast 504 580 37,000  Level FlightAware
07:48AM 43.8590 16.3020 131° Southeast 510 587 37,000  Level FlightAware
07:49AM 43.8020 16.3930 131° Southeast 511 588 37,000  Level FlightAware
07:49AM 43.7480 16.4770 132° Southeast 510 587 37,000  Level FlightAware
07:50AM 43.6930 16.5650 131° Southeast 510 587 37,000  Level FlightAware
07:50AM 43.6370 16.6530 131° Southeast 511 588 37,000  Level FlightAware
07:51AM 43.5820 16.7380 132° Southeast 511 588 37,000  Level FlightAware
07:52AM 43.5290 16.8200 132° Southeast 512 589 37,000  Level FlightAware
07:52AM 43.4750 16.9060 131° Southeast 512 589 37,000  Level FlightAware
07:53AM 43.4250 16.9830 132° Southeast 512 589 37,000  Level FlightAware
07:53AM 43.3660 17.0740 132° Southeast 512 589 37,000  Level FlightAware
07:54AM 43.3090 17.1620 132° Southeast 512 589 37,000  Level FlightAware
07:55AM 43.2550 17.2450 132° Southeast 512 589 37,000  Level FlightAware
07:55AM 43.1970 17.3330 132° Southeast 512 589 37,000 -120 Level FlightAware
07:56AM 43.1410 17.4180 132° Southeast 512 589 36,900  Descending FlightAware
07:56AM 43.0860 17.5020 132° Southeast 511 588 37,000 60 Climbing FlightAware
07:57AM 43.0330 17.5820 132° Southeast 509 586 37,000  Level FlightAware
07:57AM 42.9800 17.6630 132° Southeast 509 586 37,000  Level FlightAware
07:58AM 42.9150 17.7610 132° Southeast 508 585 37,000  Level FlightAware
07:59AM 42.8700 17.8290 132° Southeast 508 585 37,000  Level FlightAware
07:59AM 42.8140 17.9130 132° Southeast 508 585 37,000  Level FlightAware
07:59AM 42.7920 17.9460 132° Southeast 508 585 37,000  Level FlightAware
08:01AM 42.6860 18.1040 132° Southeast 508 585 37,000  Level FlightAware
08:01AM 42.6320 18.1850 132° Southeast 502 578 37,000  Level FlightAware
08:02AM 42.5790 18.2630 133° Southeast 503 579 37,000  Level FlightAware
08:02AM 42.5170 18.3500 134° Southeast 504 580 37,000  Level FlightAware
08:03AM 42.4270 18.4710 135° Southeast 504 580 37,000  Level FlightAware
08:04AM 42.3660 18.5510 136° Southeast 505 581 37,000 -120 Level FlightAware
08:04AM 42.3180 18.6170 135° Southeast 505 581 36,900  Descending FlightAware
08:05AM 42.2530 18.7030 136° Southeast 504 580 37,000  Climbing FlightAware
08:06AM 42.1830 18.7950 136° Southeast 508 585 36,900  Descending FlightAware
08:06AM 42.0970 18.9090 135° Southeast 506 582 37,000 60 Climbing FlightAware
08:07AM 42.0430 18.9800 136° Southeast 507 583 37,000  Level FlightAware
08:08AM 41.9820 19.0600 136° Southeast 506 582 37,000  Level FlightAware
08:08AM 41.9220 19.1390 136° Southeast 506 582 37,000  Level FlightAware
08:09AM 41.8690 19.2080 136° Southeast 506 582 37,000  Level FlightAware
08:09AM 41.8050 19.2910 136° Southeast 506 582 37,000  Level FlightAware
08:10AM 41.7430 19.3710 136° Southeast 507 583 37,000  Level FlightAware
08:10AM 41.7020 19.4220 137° Southeast 507 583 37,000  Level FlightAware
08:11AM 41.6290 19.5160 136° Southeast 507 583 37,000  Level FlightAware
08:12AM 41.5840 19.5720 137° Southeast 506 582 37,000  Level FlightAware
08:12AM 41.5130 19.6620 136° Southeast 506 582 37,000  Level FlightAware
08:13AM 41.4520 19.7390 137° Southeast 507 583 37,000  Level FlightAware
08:13AM 41.3900 19.8180 136° Southeast 507 583 37,000  Level FlightAware
08:14AM 41.3280 19.8950 137° Southeast 509 586 37,000  Level FlightAware
08:15AM 41.2770 19.9600 136° Southeast 510 587 37,000  Level FlightAware
08:15AM 41.2130 20.0390 137° Southeast 513 590 37,000  Level FlightAware
08:16AM 41.1510 20.1160 137° Southeast 514 592 37,000  Level FlightAware
08:16AM 41.0910 20.1900 137° Southeast 516 594 37,000 -120 Level FlightAware
08:17AM 41.0300 20.2660 137° Southeast 516 594 36,900 -120 Descending FlightAware
08:18AM 40.9650 20.3460 137° Southeast 516 594 36,900  Level FlightAware
08:18AM 40.9020 20.4240 137° Southeast 515 593 36,900 60 Level FlightAware
08:19AM 40.8390 20.5020 137° Southeast 514 592 37,000  Climbing FlightAware
08:19AM 40.7740 20.5820 137° Southeast 513 590 36,900 -120 Descending FlightAware
08:20AM 40.7110 20.6590 137° Southeast 511 588 36,900 60 Level FlightAware
08:21AM 40.6470 20.7360 138° Southeast 510 587 37,000 60 Climbing FlightAware
08:21AM 40.5890 20.8070 137° Southeast 509 586 37,000 -120 Level FlightAware
08:22AM 40.5300 20.8780 138° Southeast 508 585 36,900  Descending FlightAware
08:22AM 40.4680 20.9530 137° Southeast 508 585 37,000 60 Climbing FlightAware
08:23AM 40.4030 21.0310 138° Southeast 509 586 37,000  Level FlightAware
08:23AM 40.3480 21.0980 137° Southeast 510 587 37,000  Level FlightAware
08:24AM 40.2850 21.1740 137° Southeast 511 588 37,000  Level FlightAware
08:25AM 40.2220 21.2490 138° Southeast 511 588 37,000  Level FlightAware
08:25AM 40.1630 21.3200 137° Southeast 512 589 37,000  Level FlightAware
08:26AM 40.1050 21.3880 138° Southeast 513 590 37,000  Level FlightAware
08:26AM 40.0420 21.4640 137° Southeast 516 594 37,000  Level FlightAware
08:27AM 39.9800 21.5380 138° Southeast 516 594 37,000  Level FlightAware
08:28AM 39.9150 21.6110 139° Southeast 516 594 37,000  Level FlightAware
08:28AM 39.8480 21.6860 139° Southeast 518 596 37,000  Level FlightAware
08:29AM 39.7920 21.7490 139° Southeast 519 597 37,000 -120 Level FlightAware
08:29AM 39.7250 21.8230 140° Southeast 520 598 36,900  Descending FlightAware
08:30AM 39.6590 21.8970 139° Southeast 521 600 37,000  Climbing FlightAware
08:30AM 39.6000 21.9630 139° Southeast 522 601 36,900  Descending FlightAware
08:31AM 39.5350 22.0360 139° Southeast 523 602 37,000  Climbing FlightAware
08:32AM 39.4650 22.1130 140° Southeast 523 602 36,900  Descending FlightAware
08:32AM 39.4080 22.1770 139° Southeast 523 602 37,000  Climbing FlightAware
08:33AM 39.3470 22.2440 140° Southeast 523 602 36,900 -120 Descending FlightAware
08:33AM 39.2700 22.3290 139° Southeast 523 602 36,900 60 Level FlightAware
08:34AM 39.2110 22.3940 140° Southeast 524 603 37,000 60 Climbing FlightAware
08:35AM 39.1430 22.4680 140° Southeast 524 603 37,000 -120 Level FlightAware
08:35AM 39.0820 22.5350 140° Southeast 524 603 36,900 -120 Descending FlightAware
08:36AM 39.0150 22.6090 139° Southeast 524 603 36,900 60 Level FlightAware
08:36AM 38.9530 22.6760 140° Southeast 524 603 37,000 60 Climbing FlightAware
08:37AM 38.8890 22.7460 140° Southeast 525 604 37,000  Level FlightAware
08:37AM 38.8230 22.8170 140° Southeast 526 605 37,000 -120 Level FlightAware
08:38AM 38.7560 22.8900 140° Southeast 527 606 36,900 -120 Descending FlightAware
08:39AM 38.6870 22.9640 140° Southeast 527 606 36,900 60 Level FlightAware
08:39AM 38.6350 23.0200 140° Southeast 528 608 37,000  Climbing FlightAware
08:39AM 38.5990 23.0590 140° Southeast 528 608 36,900  Descending FlightAware
08:40AM 38.5120 23.1520 140° Southeast 528 608 37,000 60 Climbing FlightAware
08:41AM 38.4500 23.2180 140° Southeast 528 608 37,000  Level FlightAware
08:41AM 38.3790 23.2940 140° Southeast 529 609 37,000  Level FlightAware
08:42AM 38.3520 23.3230 140° Southeast 529 609 37,000 -120 Level FlightAware
08:43AM 38.2370 23.4460 140° Southeast 529 609 36,900  Descending FlightAware
08:43AM 38.1750 23.5110 140° Southeast 530 610 37,000 60 Climbing FlightAware
08:44AM 38.1140 23.5750 140° Southeast 530 610 37,000  Level FlightAware
08:44AM 38.0440 23.6650 135° Southeast 536 617 37,000  Level FlightAware
08:45AM 37.9970 23.7450 127° Southeast 536 617 37,000  Level FlightAware
08:46AM 37.9440 23.8350 127° Southeast 537 618 37,000  Level FlightAware
08:46AM 37.8960 23.9230 125° Southeast 538 619 37,000  Level FlightAware
08:47AM 37.8470 24.0130 125° Southeast 539 620 37,000  Level FlightAware
08:47AM 37.8060 24.0860 125° Southeast 539 620 37,000  Level FlightAware
08:48AM 37.7570 24.1750 125° Southeast 539 620 37,000 -120 Level FlightAware
08:48AM 37.7060 24.2660 125° Southeast 540 621 36,900  Descending FlightAware
08:49AM 37.6500 24.3650 126° Southeast 540 621 37,000 60 Climbing FlightAware
08:50AM 37.5990 24.4570 125° Southeast 540 621 37,000  Level FlightAware
08:50AM 37.5530 24.5380 126° Southeast 539 620 37,000  Level FlightAware
08:51AM 37.5010 24.6300 125° Southeast 540 621 37,000  Level FlightAware
08:51AM 37.4490 24.7230 125° Southeast 541 623 37,000  Level FlightAware
08:52AM 37.4030 24.8060 125° Southeast 540 621 37,000  Level FlightAware
08:52AM 37.3500 24.9000 125° Southeast 540 621 37,000  Level FlightAware
08:53AM 37.3090 24.9720 126° Southeast 540 621 37,000 -120 Level FlightAware
08:54AM 37.2460 25.0830 125° Southeast 539 620 36,900  Descending FlightAware
08:54AM 37.2000 25.1630 126° Southeast 539 620 37,000  Climbing FlightAware
08:55AM 37.1470 25.2570 125° Southeast 540 621 36,900  Descending FlightAware
08:55AM 37.1010 25.3370 126° Southeast 540 621 37,000  Climbing FlightAware
08:56AM 37.0450 25.4340 126° Southeast 541 623 36,900  Descending FlightAware
08:56AM 36.9980 25.5160 126° Southeast 540 621 37,000 60 Climbing FlightAware
08:57AM 36.9390 25.6180 126° Southeast 540 621 37,000  Level FlightAware
08:58AM 36.8920 25.6990 126° Southeast 542 624 37,000  Level FlightAware
08:58AM 36.8390 25.7900 126° Southeast 544 626 37,000 -120 Level FlightAware
08:59AM 36.7930 25.8700 126° Southeast 547 629 36,900  Descending FlightAware
08:59AM 36.7390 25.9630 126° Southeast 548 631 37,000 60 Climbing FlightAware
09:00AM 36.6820 26.0610 126° Southeast 549 632 37,000  Level FlightAware
09:01AM 36.6280 26.1520 126° Southeast 549 632 37,000 -120 Level FlightAware
09:01AM 36.5820 26.2370 124° Southeast 552 635 36,900 -120 Descending FlightAware
09:02AM 36.5380 26.3380 118° Southeast 553 636 36,900 120 Level FlightAware
09:02AM 36.5250 26.3700 117° Southeast 553 636 37,000  Climbing FlightAware
09:03AM 36.4740 26.4990 116° Southeast 553 636 36,900  Descending FlightAware
09:03AM 36.4340 26.5980 117° Southeast 551 634 37,000  Climbing FlightAware
09:04AM 36.3900 26.7080 116° Southeast 551 634 36,900 -120 Descending FlightAware
09:05AM 36.3470 26.8130 117° Southeast 551 634 36,900 60 Level FlightAware
09:05AM 36.3100 26.9040 117° Southeast 550 633 37,000 60 Climbing FlightAware
09:06AM 36.2690 27.0050 117° Southeast 551 634 37,000  Level FlightAware
09:06AM 36.2310 27.0980 117° Southeast 551 634 37,000  Level FlightAware
09:07AM 36.1840 27.2100 117° Southeast 553 636 37,000  Level FlightAware
09:08AM 36.1430 27.3110 117° Southeast 553 636 37,000  Level FlightAware
09:08AM 36.1080 27.3950 117° Southeast 554 638 37,000 -120 Level FlightAware
09:09AM 36.0650 27.4990 117° Southeast 555 639 36,900 -120 Descending FlightAware
09:09AM 36.0290 27.5850 117° Southeast 555 639 36,900  Level FlightAware
09:10AM 35.9800 27.7030 117° Southeast 555 639 36,900  Level FlightAware
09:11AM 35.9420 27.7970 117° Southeast 555 639 36,900  Level FlightAware
09:11AM 35.9050 27.8860 117° Southeast 555 639 36,900  Level FlightAware
09:12AM 35.8630 27.9870 117° Southeast 555 639 36,900  Level FlightAware
09:13AM 35.7200 28.1470 138° Southeast 557 641 36,900  Level FlightAware
09:13AM 35.6680 28.2360 126° Southeast 556 640 36,900  Level FlightAware
09:14AM 35.6130 28.3270 127° Southeast 554 638 36,900 60 Level FlightAware
09:14AM 35.5580 28.4210 126° Southeast 554 638 37,000 60 Climbing FlightAware
09:15AM 35.5060 28.5080 126° Southeast 553 636 37,000  Level FlightAware
09:16AM 35.4570 28.5910 126° Southeast 552 635 37,000  Level FlightAware
09:16AM 35.4010 28.6830 127° Southeast 552 635 37,000  Level FlightAware
09:17AM 35.3470 28.7740 126° Southeast 551 634 37,000  Level FlightAware
09:17AM 35.3130 28.8310 126° Southeast 550 633 37,000  Level FlightAware
09:18AM 35.2600 28.9190 126° Southeast 550 633 37,000  Level FlightAware
09:18AM 35.2040 29.0130 126° Southeast 548 631 37,000  Level FlightAware
09:19AM 35.1580 29.0890 126° Southeast 548 631 37,000 -300 Level FlightAware
09:22AM 34.9571 29.4709 121° Southeast  Level Estimated
09:22AM 34.8540 29.5840 121° Southeast 541 623 36,000  Level FlightAware
09:23AM 34.7940 29.6810 127° Southeast 542 624 35,000 -960 Descending FlightAware
09:24AM 34.7410 29.7670 127° Southeast 543 625 34,900 -120 Descending FlightAware
09:24AM 34.7020 29.8300 127° Southeast 543 625 34,900 60 Level FlightAware
09:25AM 34.6470 29.9180 127° Southeast 541 623 35,000 60 Climbing FlightAware
09:25AM 34.6010 29.9950 126° Southeast 541 623 35,000  Level FlightAware
09:26AM 34.5280 30.1470 120° Southeast 538 619 35,000 -120 Level FlightAware
09:27AM 34.4850 30.2380 120° Southeast 540 621 34,900 -120 Descending FlightAware
09:27AM 34.4370 30.3390 120° Southeast 545 627 34,900  Level FlightAware
09:28AM 34.3950 30.4270 120° Southeast 546 628 34,900  Level FlightAware
09:28AM 34.3470 30.5260 120° Southeast 547 629 34,900 60 Level FlightAware
09:29AM 34.3020 30.6180 121° Southeast 547 629 35,000 60 Climbing FlightAware
09:30AM 34.2570 30.7100 121° Southeast 544 626 35,000  Level FlightAware
09:30AM 34.2180 30.7890 121° Southeast 545 627 35,000  Level FlightAware
09:31AM 34.1720 30.8840 120° Southeast 545 627 35,000  Level FlightAware
09:32AM 34.1080 31.0140 121° Southeast 544 626 35,000 -120 Level FlightAware
09:32AM 34.0600 31.1120 121° Southeast 544 626 34,900  Descending FlightAware
09:33AM 34.0140 31.2040 121° Southeast 544 626 35,000  Climbing FlightAware
09:33AM 33.9700 31.2940 121° Southeast 542 624 34,900  Descending FlightAware
09:34AM 33.9240 31.3870 121° Southeast 541 623 35,000  Climbing FlightAware
09:34AM 33.8770 31.4810 121° Southeast 542 624 34,900 -120 Descending FlightAware
09:35AM 33.8310 31.5740 121° Southeast 541 623 34,900  Level FlightAware
09:36AM 33.7920 31.6520 121° Southeast 540 621 34,900  Level FlightAware
09:36AM 33.7480 31.7410 121° Southeast 540 621 34,900  Level FlightAware
09:37AM 33.7020 31.8320 121° Southeast 539 620 34,900  Level FlightAware
09:37AM 33.6560 31.9240 121° Southeast 539 620 34,900  Level FlightAware
09:38AM 33.6100 32.0150 121° Southeast 539 620 34,900 60 Level FlightAware
09:39AM 33.5570 32.1190 121° Southeast 539 620 35,000 60 Climbing FlightAware
09:39AM 33.5060 32.2210 121° Southeast 539 620 35,000  Level FlightAware
09:40AM 33.4750 32.2820 121° Southeast 539 620 35,000  Level FlightAware
09:41AM 33.3830 32.4630 121° Southeast 538 619 35,000 -120 Level FlightAware
09:41AM 33.3370 32.5530 121° Southeast 542 624 34,900  Descending FlightAware
09:42AM 33.2910 32.6430 121° Southeast 508 585 35,000 -1,920 Climbing FlightAware
09:43AM 33.2090 32.8020 122° Southeast 542 624 31,600 -2,520 Descending FlightAware
09:44AM 33.2090 32.8020 122° Southeast 550 633 30,900 -1,560 Descending FlightAware
09:44AM 33.1010 33.0120 122° Southeast 547 629 29,600 -1,980 Descending FlightAware
09:45AM 33.0490 33.1130 122° Southeast 540 621 27,900 -1,740 Descending FlightAware
09:46AM 32.9920 33.2220 122° Southeast 528 608 27,000 -660 Descending FlightAware
09:47AM 32.9530 33.2970 122° Southeast 528 608 27,000 -3,420 Level FlightAware
09:47AM 32.8990 33.4010 122° Southeast 488 562 23,100 -4,680 Descending FlightAware
09:48AM 32.8610 33.4740 122° Southeast 471 542 21,900 -2,220 Descending FlightAware
09:48AM 32.8130 33.5640 122° Southeast 460 529 20,400 -2,100 Descending FlightAware
09:49AM 32.7790 33.6290 122° Southeast 437 503 19,400 -1,140 Descending FlightAware
09:50AM 32.7390 33.7080 121° Southeast 428 493 19,000 -1,680 Descending FlightAware
09:50AM 32.7090 33.7700 120° Southeast 384 442 17,400 -2,520 Descending FlightAware
09:50AM 32.7020 33.8120 101° East 370 426 16,900 -1,320 Descending FlightAware
09:51AM 32.7000 33.8830 92° East 343 395 16,200 -1,200 Descending FlightAware
09:52AM 32.6990 33.9780 91° East 314 361 15,100 -1,800 Descending FlightAware
09:52AM 32.6980 34.0430 91° East 323 372 13,500 -2,340 Descending FlightAware
09:53AM 32.6960 34.0770 94° East 321 369 12,900 -1,860 Descending FlightAware
09:53AM 32.6880 34.1020 111° Southeast 317 365 12,400 -1,920 Descending FlightAware
09:53AM 32.6670 34.1290 133° Southeast 310 357 11,800 -1,740 Descending FlightAware
09:54AM 32.6520 34.1370 156° South 305 351 11,500 -1,380 Descending FlightAware
09:54AM 32.6020 34.1460 171° South 298 343 10,700 -1,380 Descending FlightAware
09:55AM 32.5650 34.1680 153° Southeast 299 344 10,000 -1,380 Descending FlightAware
09:55AM 32.5470 34.1840 143° Southeast 297 342 9,600 -1,380 Descending FlightAware
09:55AM 32.5270 34.2020 143° Southeast 296 341 9,200 -1,500 Descending FlightAware
09:56AM 32.5050 34.2220 143° Southeast 294 338 8,700 -1,320 Descending FlightAware
09:56AM 32.4820 34.2430 142° Southeast 293 337 8,300 -1,080 Descending FlightAware
09:56AM 32.4600 34.2620 144° Southeast 290 334 8,000 -1,020 Descending FlightAware
09:57AM 32.4430 34.2770 143° Southeast 289 333 7,700 -960 Descending FlightAware
09:57AM 32.4140 34.3030 143° Southeast 288 331 7,300 -900 Descending FlightAware
09:57AM 32.3920 34.3220 144° Southeast 286 329 7,000 -900 Descending FlightAware
09:58AM 32.3780 34.3350 142° Southeast 284 327 6,800 -780 Descending FlightAware
09:58AM 32.3530 34.3570 143° Southeast 280 322 6,500 -480 Descending FlightAware
09:59AM 32.3170 34.3890 143° Southeast 279 321 6,300 -360 Descending FlightAware
09:59AM 32.2970 34.4070 143° Southeast 279 321 6,200 -840 Descending FlightAware
09:59AM 32.2770 34.4250 143° Southeast 273 314 5,800 -1,200 Descending FlightAware
09:59AM 32.2700 34.4300 149° Southeast 273 314 5,700 -1,200 Descending FlightAware
09:59AM 32.2670 34.4340 132° Southeast 273 314 5,600 -1,200 Descending FlightAware
10:00AM 32.2630 34.4380 140° Southeast 273 314 5,500 -480 Descending FlightAware
10:00AM 32.2310 34.4880 127° Southeast 274 315 5,200 -300 Descending FlightAware
10:01AM 32.2150 34.5190 121° Southeast 275 316 5,200  Level FlightAware
10:01AM 32.1990 34.5510 121° Southeast 273 314 5,200  Level FlightAware
10:01AM 32.1810 34.5850 122° Southeast 273 314 5,200  Level FlightAware
10:02AM 32.1670 34.6120 121° Southeast 274 315 5,200  Level FlightAware
10:02AM 32.1580 34.6290 122° Southeast 274 315 5,200  Level FlightAware
10:03AM 32.1280 34.6810 124° Southeast 275 316 5,200  Level FlightAware
10:03AM 32.1020 34.7280 123° Southeast 253 291 5,200  Level FlightAware
10:04AM 32.0890 34.7530 122° Southeast 253 291 5,200 -240 Level FlightAware
10:04AM 32.0660 34.7810 134° Southeast 228 262 5,000 -360 Descending FlightAware
10:05AM 32.0400 34.8110 136° Southeast 227 261 4,800 -360 Descending FlightAware
10:05AM 32.0570 34.7910 315° West 227 261 4,600 -240 Descending FlightAware
10:06AM 32.0390 34.8110 137° Southeast 227 261 4,600 -960 Level FlightAware
10:06AM 31.9980 34.8950 120° Southeast 195 224 3,700 -1,560 Descending FlightAware
10:07AM 32.0040 34.9240 76° East 190 219 3,100 -720 Descending FlightAware
10:07AM 32.0090 34.9460 75° East 190 219 3,100 -1,740 Level FlightAware
10:07AM 32.0040 34.9240 255° West 178 205 2,000 -2,400 Descending FlightAware
10:08AM 32.0400 34.9440 25° Northeast 163 188 1,600 -840 Descending FlightAware
10:08AM 32.0450 34.9360 306° West 161 185 1,500 -180 Descending FlightAware
10:09AM 32.0570 34.9220 315° West 161 185 1,500  Level FlightAware